TimeAKST,TemperatureF,Dew PointF,Humidity,Sea Level PressureIn,VisibilityMPH,Wind Direction,Wind SpeedMPH,Gust SpeedMPH,PrecipitationIn,Events,Conditions,WindDirDegrees,DateUTC
12:16 AM,35.6,32.0,87,29.05,10.0,SSE,11.5,-,N/A,,Scattered Clouds,160,2013-01-02 09:16:00
12:36 AM,35.6,33.8,93,29.05,10.0,SE,8.1,19.6,N/A,,Mostly Cloudy,130,2013-01-02 09:36:00
12:56 AM,33.8,32.0,93,29.04,9.0,SE,4.6,-,N/A,,Mostly Cloudy,130,2013-01-02 09:56:00
1:16 AM,33.8,32.0,93,29.04,10.0,ESE,4.6,-,N/A,,Mostly Cloudy,120,2013-01-02 10:16:00
1:36 AM,33.8,30.2,87,29.03,10.0,NE,3.5,-,N/A,,Scattered Clouds,40,2013-01-02 10:36:00
1:56 AM,33.8,30.2,87,29.03,10.0,NE,3.5,-,N/A,,Clear,40,2013-01-02 10:56:00
2:16 AM,32.0,30.2,93,29.02,10.0,NNE,3.5,-,N/A,,Clear,30,2013-01-02 11:16:00
2:36 AM,33.8,30.2,87,29.01,10.0,NE,3.5,-,N/A,,Mostly Cloudy,40,2013-01-02 11:36:00
2:56 AM,33.8,32.0,93,29.00,10.0,Calm,Calm,-,N/A,,Mostly Cloudy,0,2013-01-02 11:56:00
3:16 AM,33.8,30.2,87,29.00,10.0,Calm,Calm,-,N/A,,Mostly Cloudy,0,2013-01-02 12:16:00
3:36 AM,33.8,30.2,87,28.99,10.0,Calm,Calm,-,N/A,,Mostly Cloudy,0,2013-01-02 12:36:00
3:56 AM,35.6,32.0,87,28.97,10.0,NE,3.5,-,N/A,,Mostly Cloudy,40,2013-01-02 12:56:00
4:16 AM,35.6,33.8,93,28.96,5.0,NE,5.8,-,N/A,,Overcast,40,2013-01-02 13:16:00
4:36 AM,35.6,33.8,93,28.96,9.0,NE,4.6,-,N/A,,Overcast,40,2013-01-02 13:36:00
4:56 AM,33.8,33.8,100,28.95,8.0,NE,5.8,-,N/A,,Overcast,40,2013-01-02 13:56:00
5:16 AM,33.8,33.8,100,28.93,8.0,NE,8.1,-,N/A,,Overcast,40,2013-01-02 14:16:00
5:36 AM,33.8,32.0,93,28.91,7.0,NE,9.2,16.1,N/A,,Overcast,40,2013-01-02 14:36:00
5:56 AM,35.6,33.8,93,28.91,8.0,NNE,12.7,24.2,N/A,,Overcast,30,2013-01-02 14:56:00
6:16 AM,33.8,32.0,93,28.89,10.0,NNE,10.4,23.0,N/A,,Overcast,30,2013-01-02 15:16:00
6:36 AM,33.8,32.0,93,28.87,5.0,NNE,12.7,21.9,N/A,,Overcast,30,2013-01-02 15:36:00
6:56 AM,33.8,33.8,100,28.86,1.5,NE,11.5,20.7,N/A,,Overcast,40,2013-01-02 15:56:00
7:16 AM,35.6,33.8,93,28.86,1.5,NE,10.4,18.4,N/A,,Overcast,40,2013-01-02 16:16:00
7:36 AM,35.6,33.8,93,28.84,1.5,NNE,9.2,19.6,N/A,,Overcast,30,2013-01-02 16:36:00
7:56 AM,35.6,35.6,100,28.83,8.0,NNE,9.2,17.3,N/A,,Overcast,30,2013-01-02 16:56:00
8:16 AM,35.6,35.6,100,28.82,3.0,NE,3.5,17.3,N/A,,Overcast,40,2013-01-02 17:16:00
8:36 AM,37.4,37.4,100,28.82,3.0,ENE,9.2,-,N/A,,Overcast,60,2013-01-02 17:36:00
8:56 AM,37.4,37.4,100,28.81,7.0,NE,3.5,-,N/A,,Overcast,40,2013-01-02 17:56:00
9:16 AM,37.4,37.4,100,28.80,7.0,NE,4.6,-,N/A,,Overcast,50,2013-01-02 18:16:00
9:36 AM,37.4,37.4,100,28.79,3.0,East,5.8,-,N/A,,Overcast,80,2013-01-02 18:36:00
9:56 AM,37.4,37.4,100,28.81,3.0,ENE,4.6,-,N/A,,Overcast,70,2013-01-02 18:56:00
10:16 AM,37.4,37.4,100,28.79,10.0,Calm,Calm,-,N/A,,Mostly Cloudy,0,2013-01-02 19:16:00
10:36 AM,37.4,37.4,100,28.79,10.0,ENE,3.5,-,N/A,,Mostly Cloudy,70,2013-01-02 19:36:00
10:56 AM,37.4,37.4,100,28.79,10.0,NE,3.5,-,N/A,,Mostly Cloudy,50,2013-01-02 19:56:00
11:16 AM,37.4,35.6,93,28.79,10.0,NE,5.8,-,N/A,,Mostly Cloudy,50,2013-01-02 20:16:00
11:36 AM,37.4,35.6,93,28.78,10.0,NNE,6.9,-,N/A,,Mostly Cloudy,30,2013-01-02 20:36:00
11:56 AM,37.4,35.6,93,28.77,10.0,East,4.6,-,N/A,,Mostly Cloudy,90,2013-01-02 20:56:00
12:16 PM,37.4,35.6,93,28.78,10.0,NE,4.6,-,N/A,,Mostly Cloudy,50,2013-01-02 21:16:00
12:36 PM,37.4,35.6,93,28.76,10.0,NE,5.8,-,N/A,,Mostly Cloudy,50,2013-01-02 21:36:00
12:56 PM,39.2,35.6,87,28.75,10.0,NE,5.8,-,N/A,,Mostly Cloudy,50,2013-01-02 21:56:00
1:16 PM,37.4,35.6,93,28.75,10.0,ENE,4.6,-,N/A,,Mostly Cloudy,60,2013-01-02 22:16:00
1:36 PM,37.4,35.6,93,28.73,10.0,NE,3.5,-,N/A,,Overcast,50,2013-01-02 22:36:00
1:56 PM,37.4,35.6,93,28.72,10.0,NE,3.5,-,N/A,,Mostly Cloudy,40,2013-01-02 22:56:00
2:16 PM,37.4,35.6,93,28.71,10.0,NE,5.8,-,N/A,,Mostly Cloudy,40,2013-01-02 23:16:00
2:36 PM,37.4,35.6,93,28.71,10.0,NE,5.8,-,N/A,,Overcast,40,2013-01-02 23:36:00
2:56 PM,37.4,35.6,93,28.70,10.0,NE,6.9,-,N/A,,Overcast,40,2013-01-02 23:56:00
3:16 PM,37.4,35.6,93,28.69,10.0,NE,6.9,-,N/A,,Overcast,50,2013-01-03 00:16:00
3:36 PM,37.4,35.6,93,28.69,10.0,NE,4.6,-,N/A,,Overcast,50,2013-01-03 00:36:00
3:56 PM,37.4,35.6,93,28.69,10.0,ENE,4.6,-,N/A,,Mostly Cloudy,60,2013-01-03 00:56:00
4:36 PM,37.4,35.6,93,28.67,10.0,NNE,4.6,-,N/A,,Mostly Cloudy,30,2013-01-03 01:36:00
4:56 PM,37.4,35.6,93,28.68,10.0,NE,5.8,-,N/A,,Overcast,50,2013-01-03 01:56:00
5:16 PM,37.4,35.6,93,28.67,10.0,NE,5.8,-,N/A,,Overcast,40,2013-01-03 02:16:00
5:36 PM,37.4,35.6,93,28.66,10.0,NE,6.9,-,N/A,,Overcast,40,2013-01-03 02:36:00
5:56 PM,37.4,35.6,93,28.66,5.0,NNE,4.6,-,N/A,,Overcast,30,2013-01-03 02:56:00
6:36 PM,-9999,-9999,N/A,28.66,-9999.0,NNE,5.8,-,N/A,,Unknown,30,2013-01-03 03:36:00
6:56 PM,37.4,35.6,93,28.65,6.0,NNE,4.6,-,N/A,,Overcast,30,2013-01-03 03:56:00
7:16 PM,37.4,35.6,93,28.66,6.0,NNE,3.5,-,N/A,,Overcast,20,2013-01-03 04:16:00
7:36 PM,35.6,33.8,93,28.66,6.0,Calm,Calm,-,N/A,,Overcast,0,2013-01-03 04:36:00
7:56 PM,35.6,33.8,93,28.66,-9999.0,Calm,Calm,-,N/A,,Overcast,0,2013-01-03 04:56:00
8:16 PM,35.6,35.6,100,28.66,10.0,Calm,Calm,-,N/A,,Overcast,0,2013-01-03 05:16:00
8:36 PM,35.6,35.6,100,28.68,5.0,WSW,6.9,-,N/A,,Overcast,250,2013-01-03 05:36:00
8:56 PM,35.6,35.6,100,28.68,10.0,WSW,6.9,-,N/A,,Overcast,240,2013-01-03 05:56:00
9:16 PM,35.6,35.6,100,28.69,10.0,SW,5.8,-,N/A,,Overcast,220,2013-01-03 06:16:00
9:36 PM,35.6,33.8,93,28.71,10.0,South,15.0,-,N/A,,Mostly Cloudy,170,2013-01-03 06:36:00
9:56 PM,35.6,35.6,100,28.72,10.0,SSE,13.8,-,N/A,,Mostly Cloudy,160,2013-01-03 06:56:00
10:16 PM,35.6,35.6,100,28.74,10.0,South,12.7,-,N/A,,Overcast,170,2013-01-03 07:16:00
10:36 PM,35.6,35.6,100,28.76,10.0,WSW,4.6,-,N/A,,Overcast,250,2013-01-03 07:36:00
10:56 PM,35.6,35.6,100,28.78,10.0,South,9.2,-,N/A,,Overcast,180,2013-01-03 07:56:00
11:16 PM,35.6,35.6,100,28.80,10.0,South,16.1,-,N/A,,Overcast,180,2013-01-03 08:16:00
11:36 PM,35.6,35.6,100,28.81,10.0,South,18.4,-,N/A,,Overcast,190,2013-01-03 08:36:00
11:56 PM,35.6,33.8,93,28.82,10.0,South,19.6,-,N/A,,Overcast,170,2013-01-03 08:56:00